Time;durP1;ratioP1;P1;durP2;ratioP2;P2;SDS_P1;SDS_P2;PMS_P1;PMS_P2;Temp;Humidity;BMP_temperature;BMP_pressure;BME280_temperature;BME280_humidity;BME280_pressure;Samples;Min_cycle;Max_cycle;Signal;HPM_P1;HPM_P2
2021/09/21 00:01:50;;;;;;;6.38;4.72;;;9.90;99.90;;;;;;5096194;28;20059;-65
2021/09/21 00:04:16;;;;;;;6.70;4.93;;;9.90;99.90;;;;;;5094655;28;20040;-65
2021/09/21 00:06:41;;;;;;;7.57;5.07;;;10.00;99.90;;;;;;5096052;28;20075;-65
2021/09/21 00:09:07;;;;;;;6.00;4.72;;;10.00;99.90;;;;;;5102571;28;20064;-65
2021/09/21 00:11:33;;;;;;;7.05;4.80;;;10.10;99.90;;;;;;5102731;28;20059;-65
2021/09/21 00:14:00;;;;;;;5.50;4.90;;;10.10;99.90;;;;;;5099819;28;20040;-65
2021/09/21 00:16:26;;;;;;;6.13;5.07;;;10.20;99.90;;;;;;5095639;28;20385;-65
2021/09/21 00:18:52;;;;;;;6.63;4.93;;;10.20;99.90;;;;;;5094208;28;20083;-65
2021/09/21 00:21:18;;;;;;;7.43;4.97;;;10.20;99.90;;;;;;5101125;28;20047;-65
2021/09/21 00:23:43;;;;;;;6.70;4.45;;;10.30;99.90;;;;;;5101542;28;20036;-65
2021/09/21 00:26:09;;;;;;;6.70;4.65;;;10.20;99.90;;;;;;5098769;28;20063;-65
2021/09/21 00:28:35;;;;;;;5.50;5.00;;;10.20;99.90;;;;;;5095213;28;20055;-65
2021/09/21 00:31:08;;;;;;;5.72;4.45;;;10.20;99.90;;;;;;5097971;28;20611;-65
2021/09/21 00:33:46;;;;;;;6.35;4.97;;;10.20;99.90;;;;;;5100831;28;20474;-65
2021/09/21 00:36:13;;;;;;;6.20;5.07;;;10.30;99.90;;;;;;5097123;28;20104;-65
2021/09/21 00:38:38;;;;;;;6.18;4.88;;;10.20;99.90;;;;;;5091913;28;20074;-65
2021/09/21 00:41:04;;;;;;;6.20;4.57;;;10.20;99.90;;;;;;5095771;28;20173;-65
2021/09/21 00:43:29;;;;;;;5.97;4.68;;;10.20;99.90;;;;;;5103165;28;20044;-65
2021/09/21 00:45:55;;;;;;;6.68;5.00;;;10.30;99.90;;;;;;5087889;28;20098;-66
2021/09/21 00:48:21;;;;;;;6.93;4.88;;;10.30;99.90;;;;;;5096085;28;20422;-65
2021/09/21 00:50:48;;;;;;;6.05;4.93;;;10.30;99.90;;;;;;5082354;28;20052;-65
2021/09/21 00:53:15;;;;;;;8.65;4.82;;;10.30;99.90;;;;;;5095300;28;20420;-65
2021/09/21 00:55:41;;;;;;;8.45;4.70;;;10.30;99.90;;;;;;5101456;28;20032;-66
2021/09/21 00:58:07;;;;;;;4.82;4.10;;;10.40;99.90;;;;;;5102187;28;20044;-66
2021/09/21 01:00:33;;;;;;;5.90;4.70;;;10.40;99.90;;;;;;5095280;28;20056;-65
2021/09/21 01:02:59;;;;;;;6.63;4.75;;;10.30;99.90;;;;;;5093174;28;20043;-65
2021/09/21 01:05:24;;;;;;;5.93;4.32;;;10.30;99.90;;;;;;5099066;28;20483;-65
2021/09/21 01:07:50;;;;;;;5.72;4.50;;;10.30;99.90;;;;;;5102739;28;20048;-65
2021/09/21 01:10:20;;;;;;;6.60;4.53;;;10.30;99.90;;;;;;5093083;28;20072;-66
2021/09/21 01:12:46;;;;;;;5.43;4.28;;;10.40;99.90;;;;;;5099084;28;20052;-65
2021/09/21 01:15:13;;;;;;;5.78;4.43;;;10.40;99.90;;;;;;5104051;28;20051;-65
2021/09/21 01:17:39;;;;;;;6.30;4.80;;;10.40;99.90;;;;;;5101669;28;20050;-65
2021/09/21 01:20:06;;;;;;;6.32;4.70;;;10.40;99.90;;;;;;5103019;28;20051;-65
2021/09/21 01:22:32;;;;;;;7.95;4.53;;;10.30;99.90;;;;;;5098448;28;20718;-65
2021/09/21 01:24:58;;;;;;;6.00;4.72;;;10.30;99.90;;;;;;5096557;28;20084;-65
2021/09/21 01:27:23;;;;;;;6.03;4.70;;;10.40;99.90;;;;;;5101760;28;20123;-65
2021/09/21 01:29:50;;;;;;;5.95;4.45;;;10.40;99.90;;;;;;5101063;28;20052;-65
2021/09/21 01:32:19;;;;;;;7.57;5.28;;;10.40;99.90;;;;;;5099036;28;20058;-65
2021/09/21 01:34:46;;;;;;;6.00;4.93;;;10.40;99.90;;;;;;5100005;28;20079;-65
2021/09/21 01:37:13;;;;;;;5.70;4.40;;;10.40;99.90;;;;;;5100202;28;20039;-65
2021/09/21 01:39:40;;;;;;;7.85;4.70;;;10.40;99.90;;;;;;5100605;28;20040;-65
2021/09/21 01:42:05;;;;;;;5.43;4.65;;;10.40;99.90;;;;;;5103342;28;20381;-65
2021/09/21 01:44:31;;;;;;;6.75;5.00;;;10.30;99.90;;;;;;5104346;28;20066;-65
2021/09/21 01:46:58;;;;;;;5.43;4.47;;;10.40;99.90;;;;;;5102180;28;20052;-65
2021/09/21 01:49:28;;;;;;;5.60;4.70;;;10.40;99.90;;;;;;5101224;28;20036;-65
2021/09/21 01:52:04;;;;;;;5.68;5.03;;;10.40;99.90;;;;;;5097685;28;20107;-65
2021/09/21 01:54:49;;;;;;;6.90;5.40;;;10.40;99.90;;;;;;5105373;28;20048;-65
2021/09/21 01:59:59;;;;;;;5.88;4.80;;;10.30;99.90;;;;;;5104034;28;20079;-65
2021/09/21 02:02:24;;;;;;;6.85;5.20;;;10.40;99.90;;;;;;5100642;28;20057;-65
2021/09/21 02:04:50;;;;;;;6.28;4.75;;;10.40;99.90;;;;;;5100469;28;20157;-65
2021/09/21 02:07:16;;;;;;;6.53;4.90;;;10.50;99.90;;;;;;5101820;28;20055;-65
2021/09/21 02:09:41;;;;;;;5.70;4.78;;;10.50;99.90;;;;;;5103431;28;20056;-65
2021/09/21 02:12:07;;;;;;;7.05;5.22;;;10.50;99.90;;;;;;5098008;28;20072;-65
2021/09/21 02:14:33;;;;;;;5.78;4.40;;;10.60;99.90;;;;;;5100391;28;20500;-65
2021/09/21 02:16:58;;;;;;;6.80;5.43;;;10.60;99.90;;;;;;5098412;28;20044;-66
2021/09/21 02:19:24;;;;;;;5.97;4.55;;;10.50;99.90;;;;;;5098606;28;20096;-65
2021/09/21 02:21:51;;;;;;;7.55;5.63;;;10.50;99.90;;;;;;5103604;28;20159;-65
2021/09/21 02:24:20;;;;;;;7.50;5.20;;;10.40;99.90;;;;;;5103312;28;20040;-65
2021/09/21 02:26:46;;;;;;;6.22;5.40;;;10.50;99.90;;;;;;5100509;28;20052;-65
2021/09/21 02:29:12;;;;;;;7.22;5.63;;;10.50;99.90;;;;;;5103692;28;20047;-66
2021/09/21 02:31:38;;;;;;;7.90;5.30;;;10.40;99.90;;;;;;5103717;28;20051;-65
2021/09/21 02:34:04;;;;;;;6.90;4.80;;;10.50;99.90;;;;;;5099747;28;20042;-65
2021/09/21 02:36:29;;;;;;;7.25;5.22;;;10.60;99.90;;;;;;5100973;28;20488;-65
2021/09/21 02:38:55;;;;;;;7.25;5.40;;;10.60;99.90;;;;;;5094938;28;20547;-65
2021/09/21 02:41:21;;;;;;;7.80;4.82;;;10.60;99.90;;;;;;5092439;28;20119;-65
2021/09/21 02:43:47;;;;;;;10.15;5.13;;;10.60;99.90;;;;;;5098602;28;20048;-65
2021/09/21 02:46:13;;;;;;;8.32;5.70;;;10.60;99.90;;;;;;5100191;28;20124;-65
2021/09/21 02:48:39;;;;;;;6.00;4.90;;;10.60;99.90;;;;;;5103321;28;20052;-65
2021/09/21 02:51:05;;;;;;;6.05;4.80;;;10.60;99.90;;;;;;5094063;28;20044;-65
2021/09/21 02:53:31;;;;;;;8.02;5.60;;;10.60;99.90;;;;;;5103854;28;20050;-65
2021/09/21 02:55:57;;;;;;;6.22;4.97;;;10.60;99.90;;;;;;5079261;28;20043;-65
2021/09/21 02:58:23;;;;;;;7.53;4.55;;;10.60;99.90;;;;;;5098352;28;20047;-65
2021/09/21 03:00:53;;;;;;;7.05;4.93;;;10.60;99.90;;;;;;5094997;28;20036;-65
2021/09/21 03:03:20;;;;;;;6.18;5.53;;;10.50;99.90;;;;;;5092847;28;20054;-65
2021/09/21 03:05:54;;;;;;;8.02;5.05;;;10.50;99.90;;;;;;5098654;28;20131;-65
2021/09/21 03:08:22;;;;;;;10.30;5.63;;;10.50;99.90;;;;;;5103297;28;20056;-65
2021/09/21 03:18:39;;;;;;;7.03;5.35;;;10.60;99.90;;;;;;5089044;28;20055;-65
2021/09/21 03:21:05;;;;;;;8.98;5.03;;;10.60;99.90;;;;;;5099303;28;20047;-65
2021/09/21 03:23:31;;;;;;;6.75;4.97;;;10.70;99.90;;;;;;5085403;28;20040;-65
2021/09/21 03:25:57;;;;;;;5.43;4.80;;;10.70;99.90;;;;;;5102942;28;20546;-65
2021/09/21 03:28:23;;;;;;;6.45;5.32;;;10.70;99.90;;;;;;5103798;28;20040;-65
2021/09/21 03:30:49;;;;;;;5.70;5.05;;;10.70;99.90;;;;;;5097105;28;20059;-65
2021/09/21 03:33:15;;;;;;;6.13;4.95;;;10.60;99.90;;;;;;5094311;28;20041;-65
2021/09/21 03:35:41;;;;;;;6.90;5.50;;;10.50;99.90;;;;;;5098525;28;20067;-65
2021/09/21 03:38:07;;;;;;;6.45;5.57;;;10.50;99.90;;;;;;5093115;28;20032;-65
2021/09/21 03:40:33;;;;;;;7.38;5.00;;;10.60;99.90;;;;;;5096738;28;20084;-65
2021/09/21 03:42:59;;;;;;;9.90;5.28;;;10.50;99.90;;;;;;5098178;28;20068;-65
2021/09/21 03:45:26;;;;;;;5.28;4.70;;;10.60;99.90;;;;;;5091421;28;20052;-65
2021/09/21 03:47:53;;;;;;;7.30;5.47;;;10.50;99.90;;;;;;5104901;28;20067;-65
2021/09/21 03:50:20;;;;;;;7.63;5.78;;;10.50;99.90;;;;;;5102411;28;20028;-65
2021/09/21 03:52:45;;;;;;;7.07;5.63;;;10.40;99.90;;;;;;5102983;28;20062;-65
2021/09/21 03:55:12;;;;;;;6.78;5.68;;;10.50;99.90;;;;;;5102580;28;20096;-65
2021/09/21 03:57:37;;;;;;;6.95;5.93;;;10.60;99.90;;;;;;5092403;28;20093;-65
2021/09/21 04:00:05;;;;;;;7.43;5.43;;;10.60;99.90;;;;;;5102746;28;20044;-65
2021/09/21 04:02:31;;;;;;;8.30;6.15;;;10.60;99.90;;;;;;5098806;28;20043;-65
2021/09/21 04:04:56;;;;;;;6.65;5.80;;;10.60;99.90;;;;;;5100449;28;20049;-65
2021/09/21 04:07:22;;;;;;;7.03;5.78;;;10.50;99.90;;;;;;5107228;28;20070;-65
2021/09/21 04:09:48;;;;;;;7.35;6.15;;;10.50;99.90;;;;;;5103225;28;20058;-65
2021/09/21 04:12:13;;;;;;;10.98;6.53;;;10.50;99.90;;;;;;5103967;28;20044;-65
2021/09/21 04:14:39;;;;;;;10.25;6.55;;;10.50;99.90;;;;;;5096974;28;20062;-65
2021/09/21 04:17:05;;;;;;;7.38;5.88;;;10.50;99.90;;;;;;5099835;28;20048;-65
2021/09/21 04:19:30;;;;;;;7.75;6.60;;;10.60;99.90;;;;;;5092834;28;20054;-65
2021/09/21 04:21:56;;;;;;;8.65;6.50;;;10.50;99.90;;;;;;5094022;28;20105;-65
2021/09/21 04:24:22;;;;;;;9.77;6.45;;;10.50;99.90;;;;;;5096222;28;20031;-65
2021/09/21 04:26:48;;;;;;;8.68;7.07;;;10.60;99.90;;;;;;5097955;28;20100;-65
2021/09/21 04:29:13;;;;;;;9.07;6.32;;;10.60;99.90;;;;;;5105607;28;20389;-65
2021/09/21 04:31:42;;;;;;;10.35;6.82;;;10.60;99.90;;;;;;5107340;28;20036;-65
2021/09/21 04:34:13;;;;;;;8.95;6.60;;;10.60;99.90;;;;;;5107192;28;20052;-65
2021/09/21 04:36:38;;;;;;;10.18;6.70;;;10.70;99.90;;;;;;5106860;28;20047;-66
2021/09/21 04:39:05;;;;;;;9.32;7.25;;;10.70;99.90;;;;;;5103559;28;20044;-65
2021/09/21 04:41:30;;;;;;;9.48;7.20;;;10.70;99.90;;;;;;5099260;28;20051;-65
2021/09/21 04:43:56;;;;;;;9.07;6.88;;;10.80;99.90;;;;;;5107018;28;20052;-65
2021/09/21 04:46:22;;;;;;;9.02;7.05;;;10.80;99.90;;;;;;5099147;28;20041;-65
2021/09/21 04:48:48;;;;;;;8.93;6.90;;;10.80;99.90;;;;;;5105787;28;20122;-66
2021/09/21 04:51:13;;;;;;;8.85;6.72;;;10.90;99.90;;;;;;5090090;28;20052;-65
2021/09/21 04:53:39;;;;;;;8.27;6.28;;;10.90;99.90;;;;;;5095571;28;20048;-65
2021/09/21 04:56:05;;;;;;;8.85;7.10;;;10.90;99.90;;;;;;5102021;28;20083;-65
2021/09/21 04:58:30;;;;;;;7.80;6.07;;;11.00;99.90;;;;;;5104912;28;20519;-66
2021/09/21 05:00:56;;;;;;;9.77;6.70;;;11.00;99.90;;;;;;5106152;28;20032;-67
2021/09/21 05:03:22;;;;;;;7.40;6.57;;;11.00;99.90;;;;;;5087724;28;20062;-64
2021/09/21 05:05:48;;;;;;;8.30;6.78;;;11.10;99.90;;;;;;5105809;28;20048;-64
2021/09/21 05:08:13;;;;;;;9.95;6.45;;;11.10;99.90;;;;;;5096492;28;20184;-64
2021/09/21 05:10:39;;;;;;;9.15;6.53;;;11.10;99.90;;;;;;5101410;28;20055;-64
2021/09/21 05:13:05;;;;;;;7.85;6.13;;;11.10;99.90;;;;;;5097121;28;20048;-64
2021/09/21 05:15:30;;;;;;;7.47;6.20;;;11.10;99.90;;;;;;5096179;28;20115;-63
2021/09/21 05:17:56;;;;;;;9.90;7.00;;;11.10;99.90;;;;;;5103471;28;20048;-63
2021/09/21 05:20:22;;;;;;;9.73;6.47;;;11.10;99.90;;;;;;5105722;28;20036;-63
2021/09/21 05:22:52;;;;;;;7.93;7.05;;;11.00;99.90;;;;;;5099246;28;20056;-63
2021/09/21 05:25:18;;;;;;;9.32;6.95;;;11.10;99.90;;;;;;5101965;28;20056;-63
2021/09/21 05:27:44;;;;;;;10.20;8.13;;;11.00;99.90;;;;;;5102911;28;20086;-65
2021/09/21 05:30:11;;;;;;;8.80;7.90;;;11.00;99.90;;;;;;5085043;28;20040;-64
2021/09/21 05:32:37;;;;;;;11.88;8.98;;;11.00;99.90;;;;;;5103290;28;20044;-64
2021/09/21 05:35:03;;;;;;;12.18;10.02;;;11.00;99.90;;;;;;5100805;28;20069;-65
2021/09/21 05:37:30;;;;;;;13.25;11.38;;;11.00;99.90;;;;;;5101274;28;20043;-65
2021/09/21 05:39:57;;;;;;;19.77;12.90;;;11.10;99.90;;;;;;5106210;28;20044;-65
2021/09/21 05:42:23;;;;;;;19.23;15.20;;;11.10;99.90;;;;;;5105088;28;20075;-64
2021/09/21 05:44:49;;;;;;;19.65;14.95;;;11.20;99.90;;;;;;5093724;28;20079;-64
2021/09/21 05:47:15;;;;;;;21.63;16.27;;;11.20;99.90;;;;;;5102734;28;20598;-65
2021/09/21 05:49:41;;;;;;;19.65;14.70;;;11.20;99.90;;;;;;5062293;27;20039;-63
2021/09/21 05:52:07;;;;;;;19.08;14.15;;;11.10;99.90;;;;;;5072740;28;20559;-64
2021/09/21 05:54:33;;;;;;;15.73;12.75;;;11.10;99.90;;;;;;5081759;27;20116;-63
2021/09/21 05:56:59;;;;;;;19.23;13.55;;;11.10;99.90;;;;;;5081518;28;20047;-62
2021/09/21 05:59:25;;;;;;;16.38;12.80;;;11.20;99.90;;;;;;5072256;27;20215;-62
2021/09/21 06:01:50;;;;;;;16.77;13.07;;;11.20;99.90;;;;;;5098660;27;20048;-63
2021/09/21 06:04:16;;;;;;;18.15;11.55;;;11.20;99.90;;;;;;5069902;28;20056;-64
2021/09/21 06:06:42;;;;;;;12.52;9.60;;;11.20;99.90;;;;;;5101570;28;20055;-62
2021/09/21 06:09:08;;;;;;;13.43;9.50;;;11.20;99.90;;;;;;5095426;28;20349;-62
2021/09/21 06:11:34;;;;;;;11.63;9.52;;;11.20;99.90;;;;;;5090429;28;20044;-62
2021/09/21 06:14:01;;;;;;;11.48;9.38;;;11.20;99.90;;;;;;5080343;28;20249;-62
2021/09/21 06:16:27;;;;;;;9.63;8.30;;;11.30;99.90;;;;;;5105976;27;20043;-63
2021/09/21 06:18:53;;;;;;;11.05;8.50;;;11.30;99.90;;;;;;5096227;28;20106;-62
2021/09/21 06:21:19;;;;;;;9.43;8.18;;;11.30;99.90;;;;;;5118881;27;20047;-62
2021/09/21 06:23:45;;;;;;;9.50;7.70;;;11.20;99.90;;;;;;5096062;28;20043;-63
2021/09/21 06:26:10;;;;;;;10.07;7.68;;;11.20;99.90;;;;;;5096680;27;20051;-62
2021/09/21 06:28:36;;;;;;;9.93;7.63;;;11.20;99.90;;;;;;5093220;28;20064;-63
2021/09/21 06:31:02;;;;;;;11.75;7.63;;;11.20;99.90;;;;;;5116086;27;20122;-62
2021/09/21 06:33:28;;;;;;;10.55;8.05;;;11.10;99.90;;;;;;5092824;28;20043;-63
2021/09/21 06:35:53;;;;;;;9.93;7.28;;;11.10;99.90;;;;;;5109735;27;20317;-63
2021/09/21 06:38:19;;;;;;;12.07;7.63;;;11.10;99.90;;;;;;5092949;27;20325;-63
2021/09/21 06:40:45;;;;;;;9.35;8.30;;;11.10;99.90;;;;;;5093623;28;20170;-63
2021/09/21 06:43:11;;;;;;;10.38;7.93;;;11.10;99.90;;;;;;5087921;28;20101;-62
2021/09/21 06:45:36;;;;;;;12.73;7.85;;;11.20;99.90;;;;;;5079018;27;20062;-62
2021/09/21 06:48:03;;;;;;;11.00;8.00;;;11.20;99.90;;;;;;5100950;28;20082;-62
2021/09/21 06:50:28;;;;;;;11.02;8.60;;;11.20;99.90;;;;;;5078378;27;20072;-62
2021/09/21 06:52:54;;;;;;;8.35;7.22;;;11.20;99.90;;;;;;5112824;27;20047;-63
2021/09/21 06:55:20;;;;;;;12.95;8.88;;;11.20;99.90;;;;;;5097476;27;20120;-63
2021/09/21 06:57:50;;;;;;;10.73;7.90;;;11.20;99.90;;;;;;5114769;27;20052;-63
2021/09/21 07:00:16;;;;;;;10.65;8.00;;;11.20;99.90;;;;;;5098401;27;20051;-62
2021/09/21 07:02:46;;;;;;;12.73;8.38;;;11.30;99.90;;;;;;5093465;28;20058;-67
2021/09/21 07:05:12;;;;;;;7.97;6.95;;;11.30;99.90;;;;;;5095728;27;20110;-63
2021/09/21 07:07:44;;;;;;;8.90;6.90;;;11.40;99.90;;;;;;5095335;28;20139;-62
2021/09/21 07:10:11;;;;;;;8.77;7.10;;;11.50;99.90;;;;;;5086358;27;20454;-62
2021/09/21 07:12:37;;;;;;;9.55;6.93;;;11.60;99.90;;;;;;5108255;27;20052;-62
2021/09/21 07:15:03;;;;;;;7.97;6.47;;;11.70;99.90;;;;;;5092757;27;20115;-62
2021/09/21 07:17:29;;;;;;;9.45;7.07;;;11.70;99.90;;;;;;5098501;28;20044;-62
2021/09/21 07:19:54;;;;;;;8.88;7.07;;;11.90;99.90;;;;;;5084775;27;20062;-62
2021/09/21 07:22:20;;;;;;;8.30;7.13;;;12.00;99.90;;;;;;5092946;28;20036;-62
2021/09/21 07:24:46;;;;;;;8.40;5.97;;;12.10;99.90;;;;;;5077002;27;20056;-62
2021/09/21 07:27:12;;;;;;;8.90;5.82;;;12.20;99.90;;;;;;5104753;28;20059;-62
2021/09/21 07:29:37;;;;;;;6.88;5.68;;;12.30;99.90;;;;;;5081765;27;20048;-63
2021/09/21 07:32:03;;;;;;;7.72;6.28;;;12.40;99.90;;;;;;5103195;28;20053;-62
2021/09/21 07:34:29;;;;;;;7.60;5.97;;;12.50;99.90;;;;;;5095098;28;20040;-63
2021/09/21 07:36:55;;;;;;;7.82;5.97;;;12.50;99.90;;;;;;5090254;27;20596;-62
2021/09/21 07:39:20;;;;;;;8.43;5.53;;;12.60;99.90;;;;;;5086954;28;20519;-62
2021/09/21 07:41:46;;;;;;;7.65;5.78;;;12.50;99.90;;;;;;5095355;27;20047;-62
2021/09/21 07:44:12;;;;;;;7.90;5.18;;;12.50;99.90;;;;;;5082155;28;20040;-62
2021/09/21 07:46:38;;;;;;;7.10;5.40;;;12.60;99.90;;;;;;5102550;27;20039;-62
2021/09/21 07:49:04;;;;;;;7.97;5.50;;;12.60;99.90;;;;;;5082049;28;20105;-63
2021/09/21 07:51:30;;;;;;;7.18;6.22;;;12.60;99.90;;;;;;5099049;27;20105;-62
2021/09/21 07:53:55;;;;;;;7.47;4.97;;;12.70;99.90;;;;;;5088427;28;20036;-63
2021/09/21 07:56:21;;;;;;;7.55;5.30;;;12.70;99.90;;;;;;5113067;27;20055;-62
2021/09/21 07:58:47;;;;;;;7.55;5.30;;;12.80;99.90;;;;;;5094320;28;20051;-62
2021/09/21 08:01:13;;;;;;;6.45;4.93;;;12.80;99.90;;;;;;5116151;27;20101;-62
2021/09/21 08:03:39;;;;;;;6.60;5.32;;;12.80;99.90;;;;;;5095353;27;20052;-62
2021/09/21 08:06:04;;;;;;;7.20;5.35;;;12.90;99.90;;;;;;5103332;27;20047;-62
2021/09/21 08:08:30;;;;;;;6.63;4.65;;;12.90;99.90;;;;;;5109988;27;20496;-62
2021/09/21 08:10:57;;;;;;;8.38;5.10;;;13.10;99.90;;;;;;5111881;27;20051;-62
2021/09/21 08:13:24;;;;;;;7.35;5.68;;;13.10;99.90;;;;;;5101415;28;20044;-63
2021/09/21 08:15:49;;;;;;;7.28;5.00;;;13.10;99.90;;;;;;5108369;27;20051;-64
2021/09/21 08:18:15;;;;;;;7.00;5.43;;;13.20;99.90;;;;;;5106091;27;20051;-62
2021/09/21 08:20:41;;;;;;;5.75;4.32;;;13.30;99.90;;;;;;5106591;27;20043;-62
2021/09/21 08:23:06;;;;;;;6.82;5.38;;;13.40;99.90;;;;;;5109563;28;20138;-62
2021/09/21 08:25:32;;;;;;;6.97;5.35;;;13.50;99.90;;;;;;5097791;27;20050;-62
2021/09/21 08:27:58;;;;;;;7.10;4.95;;;13.60;99.90;;;;;;5108598;28;20062;-63
2021/09/21 08:30:24;;;;;;;7.15;5.47;;;13.70;99.90;;;;;;5091269;27;20772;-63
2021/09/21 08:32:49;;;;;;;6.93;5.05;;;13.70;99.90;;;;;;5101197;28;20053;-62
2021/09/21 08:35:15;;;;;;;8.20;5.47;;;13.70;99.90;;;;;;5098160;27;20051;-64
2021/09/21 08:37:41;;;;;;;9.13;5.53;;;13.80;99.90;;;;;;5108907;28;20051;-63
2021/09/21 08:40:07;;;;;;;10.23;5.15;;;13.90;99.90;;;;;;5093094;27;20473;-63
2021/09/21 08:42:33;;;;;;;6.85;5.20;;;13.90;99.90;;;;;;5098328;28;20055;-63
2021/09/21 08:44:59;;;;;;;6.75;5.28;;;14.00;99.90;;;;;;5086900;27;20504;-62
2021/09/21 08:47:25;;;;;;;8.30;5.50;;;14.10;99.90;;;;;;5113288;28;20052;-63
2021/09/21 08:49:51;;;;;;;6.35;5.38;;;14.10;99.90;;;;;;5087828;27;20113;-63
2021/09/21 08:52:17;;;;;;;7.10;5.22;;;14.10;99.90;;;;;;5104578;28;20139;-62
2021/09/21 08:54:42;;;;;;;7.93;5.32;;;14.20;99.90;;;;;;5081104;28;20040;-63
2021/09/21 08:57:08;;;;;;;5.85;5.25;;;14.20;99.90;;;;;;5091429;27;20051;-63
2021/09/21 08:59:37;;;;;;;6.45;5.18;;;14.30;99.90;;;;;;5100480;28;20094;-62
2021/09/21 09:02:12;;;;;;;8.30;5.32;;;14.40;99.90;;;;;;5111018;27;20055;-63
2021/09/21 09:04:39;;;;;;;7.57;5.28;;;14.40;99.90;;;;;;5081065;28;20062;-63
2021/09/21 09:07:06;;;;;;;8.38;6.13;;;14.40;99.90;;;;;;5098439;28;20055;-62
2021/09/21 09:09:35;;;;;;;8.07;6.13;;;14.50;99.90;;;;;;5092224;28;20048;-62
2021/09/21 09:12:06;;;;;;;10.40;6.82;;;14.50;99.90;;;;;;5099030;27;20043;-62
2021/09/21 09:14:39;;;;;;;6.35;5.38;;;14.60;99.90;;;;;;5091776;28;20085;-62
2021/09/21 09:17:07;;;;;;;6.85;5.53;;;14.70;99.90;;;;;;5107713;27;20271;-62
2021/09/21 09:19:39;;;;;;;9.27;5.90;;;14.80;99.90;;;;;;5092656;28;20048;-63
2021/09/21 09:22:15;;;;;;;6.05;5.13;;;14.80;99.90;;;;;;5098329;27;20047;-62
2021/09/21 09:24:53;;;;;;;6.15;5.30;;;14.90;99.90;;;;;;5092424;28;20090;-62
2021/09/21 09:27:21;;;;;;;9.15;5.75;;;15.00;99.90;;;;;;5057853;28;20040;-62
2021/09/21 09:29:55;;;;;;;5.32;4.50;;;15.00;99.90;;;;;;5096965;28;20056;-62
2021/09/21 09:32:21;;;;;;;5.32;4.60;;;15.20;99.90;;;;;;5067252;28;20048;-62
2021/09/21 09:34:47;;;;;;;6.13;4.70;;;15.40;99.90;;;;;;5110642;28;20048;-62
2021/09/21 09:37:14;;;;;;;6.43;4.45;;;15.50;99.90;;;;;;5114309;27;20047;-62
2021/09/21 09:39:41;;;;;;;6.60;5.00;;;15.50;99.90;;;;;;5092204;28;20047;-62
2021/09/21 09:42:08;;;;;;;6.93;4.90;;;15.50;99.90;;;;;;5115826;27;20047;-63
2021/09/21 09:44:34;;;;;;;7.40;4.53;;;15.60;99.90;;;;;;5096711;28;20071;-62
2021/09/21 09:47:04;;;;;;;6.35;4.30;;;15.60;99.90;;;;;;5118486;27;20047;-63
2021/09/21 09:49:42;;;;;;;7.65;4.40;;;15.70;99.90;;;;;;5091197;28;20071;-63
2021/09/21 09:52:10;;;;;;;6.30;4.60;;;15.80;99.90;;;;;;5098542;27;20060;-63
2021/09/21 09:54:38;;;;;;;4.88;4.28;;;15.90;99.90;;;;;;5096996;28;20429;-62
2021/09/21 09:57:05;;;;;;;5.60;4.50;;;16.00;99.90;;;;;;5099117;27;20058;-63
2021/09/21 09:59:32;;;;;;;5.95;3.63;;;16.20;99.90;;;;;;5087235;28;20032;-62
2021/09/21 10:01:58;;;;;;;4.78;3.88;;;16.20;99.90;;;;;;5112957;27;20442;-63
2021/09/21 10:04:24;;;;;;;3.95;3.15;;;16.20;99.90;;;;;;5074896;28;20560;-63
2021/09/21 10:06:50;;;;;;;4.65;3.40;;;16.30;99.90;;;;;;5099252;27;20396;-62
2021/09/21 10:09:17;;;;;;;3.75;2.92;;;16.40;99.90;;;;;;5101032;27;20035;-62
2021/09/21 10:11:49;;;;;;;4.13;3.17;;;16.40;99.90;;;;;;5100079;27;20067;-62
2021/09/21 10:14:18;;;;;;;5.50;3.80;;;16.50;99.90;;;;;;5100708;27;20039;-62
2021/09/21 10:17:00;;;;;;;4.80;3.15;;;16.60;99.90;;;;;;5101793;27;20059;-62
2021/09/21 10:19:27;;;;;;;5.07;3.38;;;16.60;99.90;;;;;;5097809;28;20172;-62
2021/09/21 10:21:55;;;;;;;6.78;3.40;;;16.60;99.90;;;;;;5115237;27;20048;-62
2021/09/21 10:24:50;;;;;;;5.63;3.05;;;16.70;99.90;;;;;;5098857;28;20082;-62
2021/09/21 10:27:24;;;;;;;6.30;3.78;;;16.70;99.90;;;;;;5090243;27;20130;-62
2021/09/21 10:30:07;;;;;;;4.97;3.63;;;16.70;99.90;;;;;;5095163;28;20043;-62
2021/09/21 10:32:44;;;;;;;4.82;3.78;;;16.70;99.90;;;;;;5085597;28;20059;-62
2021/09/21 10:35:13;;;;;;;4.40;3.33;;;16.70;99.90;;;;;;5082711;27;20099;-63
2021/09/21 10:37:39;;;;;;;4.53;3.20;;;16.70;99.90;;;;;;5105936;28;20074;-62
2021/09/21 10:40:07;;;;;;;4.85;3.22;;;16.60;99.90;;;;;;5091601;28;20044;-63
2021/09/21 10:42:33;;;;;;;4.32;3.33;;;16.70;99.90;;;;;;5098843;28;20067;-62
2021/09/21 10:45:03;;;;;;;5.78;4.18;;;16.70;99.90;;;;;;5092960;28;20044;-62
2021/09/21 10:47:38;;;;;;;4.03;3.47;;;16.80;99.90;;;;;;5115394;27;20054;-63
2021/09/21 10:50:13;;;;;;;5.15;3.67;;;16.80;99.90;;;;;;5087818;28;20127;-62
2021/09/21 10:52:39;;;;;;;5.32;3.85;;;16.90;99.90;;;;;;5066821;28;20056;-62
2021/09/21 10:55:08;;;;;;;7.07;3.97;;;16.90;99.90;;;;;;5093698;28;20040;-62
2021/09/21 10:57:40;;;;;;;6.15;3.72;;;16.90;99.90;;;;;;5100600;27;20078;-62
2021/09/21 11:00:23;;;;;;;4.78;3.90;;;16.90;99.90;;;;;;5090503;28;20044;-62
2021/09/21 11:02:54;;;;;;;5.30;3.75;;;16.90;99.90;;;;;;5064364;28;20048;-63
2021/09/21 11:05:26;;;;;;;5.05;3.42;;;17.00;99.90;;;;;;5021371;27;20094;-63
2021/09/21 11:08:00;;;;;;;5.45;4.00;;;17.10;99.90;;;;;;5105032;28;20035;-62
2021/09/21 11:10:29;;;;;;;6.10;4.03;;;17.20;99.90;;;;;;5080811;27;20317;-63
2021/09/21 11:12:56;;;;;;;6.60;4.20;;;17.30;99.90;;;;;;5111490;28;20082;-62
2021/09/21 11:15:26;;;;;;;5.18;4.10;;;17.30;99.90;;;;;;5116750;27;20064;-63
2021/09/21 11:18:10;;;;;;;6.25;4.82;;;17.40;99.90;;;;;;5126684;27;20456;-62
2021/09/21 11:20:48;;;;;;;7.20;5.32;;;17.40;99.90;;;;;;5081229;27;20052;-62
2021/09/21 11:23:16;;;;;;;5.22;4.05;;;17.60;99.90;;;;;;5107740;28;20048;-62
2021/09/21 11:25:43;;;;;;;7.55;4.60;;;17.70;99.90;;;;;;5090642;27;20060;-62
2021/09/21 11:28:09;;;;;;;6.43;4.60;;;17.80;99.90;;;;;;5103938;28;20032;-63
2021/09/21 11:30:34;;;;;;;7.88;5.25;;;18.00;99.90;;;;;;5080498;28;20064;-63
2021/09/21 11:33:15;;;;;;;7.13;5.03;;;18.00;99.90;;;;;;5072283;28;20043;-62
2021/09/21 11:35:49;;;;;;;11.82;6.22;;;18.10;99.90;;;;;;5099272;27;20040;-62
2021/09/21 11:38:16;;;;;;;10.27;5.07;;;18.00;99.90;;;;;;5091994;28;20044;-62
2021/09/21 11:40:43;;;;;;;7.55;4.80;;;18.10;99.90;;;;;;5088457;27;20049;-63
2021/09/21 11:43:11;;;;;;;7.47;4.90;;;18.00;99.90;;;;;;5106673;28;20043;-62
2021/09/21 11:45:38;;;;;;;8.35;5.40;;;18.10;99.90;;;;;;5083274;27;20052;-62
2021/09/21 11:48:05;;;;;;;8.38;5.13;;;18.20;99.90;;;;;;5121574;27;20462;-63
2021/09/21 11:50:34;;;;;;;7.15;5.43;;;18.10;99.90;;;;;;5078626;28;20538;-63
2021/09/21 11:53:06;;;;;;;7.68;5.18;;;18.10;99.90;;;;;;5112690;28;20052;-62
2021/09/21 11:55:34;;;;;;;8.60;5.22;;;18.30;99.90;;;;;;5084437;28;20045;-63
2021/09/21 11:58:01;;;;;;;11.02;5.93;;;18.40;99.90;;;;;;5108609;28;20105;-62
2021/09/21 12:00:32;;;;;;;6.93;5.70;;;18.20;99.90;;;;;;5086544;28;20062;-62
2021/09/21 12:02:58;;;;;;;9.40;5.50;;;18.10;99.90;;;;;;5071978;28;20056;-63
2021/09/21 12:05:24;;;;;;;10.30;5.85;;;18.10;99.90;;;;;;5074067;28;20164;-62
2021/09/21 12:07:50;;;;;;;9.38;5.82;;;18.10;99.90;;;;;;5111630;27;20125;-62
2021/09/21 12:10:18;;;;;;;8.43;5.78;;;18.20;99.90;;;;;;5090280;28;20101;-63
2021/09/21 12:12:43;;;;;;;9.00;5.57;;;18.10;99.90;;;;;;5114962;27;20291;-63
2021/09/21 12:15:12;;;;;;;9.02;5.50;;;18.20;99.90;;;;;;5082651;28;20536;-63
2021/09/21 12:17:45;;;;;;;6.70;5.20;;;18.10;99.90;;;;;;5076088;28;20075;-63
2021/09/21 12:20:11;;;;;;;6.88;6.05;;;18.10;99.90;;;;;;5091250;28;20117;-63
2021/09/21 12:22:48;;;;;;;7.88;5.50;;;18.00;99.90;;;;;;5096633;27;20293;-62
2021/09/21 12:25:14;;;;;;;9.32;5.65;;;18.00;99.90;;;;;;5092907;28;20044;-62
2021/09/21 12:27:40;;;;;;;6.85;5.13;;;18.10;99.90;;;;;;5093840;27;20059;-63
2021/09/21 12:30:08;;;;;;;8.77;6.25;;;18.20;99.90;;;;;;5089050;28;20087;-63
2021/09/21 12:32:35;;;;;;;9.30;5.63;;;18.00;99.90;;;;;;5110123;28;20359;-62
2021/09/21 12:35:08;;;;;;;8.35;5.32;;;17.90;99.90;;;;;;5086246;28;20032;-62
2021/09/21 12:37:42;;;;;;;7.93;4.32;;;17.70;99.90;;;;;;5103861;28;20062;-63
2021/09/21 12:40:12;;;;;;;5.70;4.05;;;17.60;99.90;;;;;;5093096;28;20048;-62
2021/09/21 12:42:39;;;;;;;6.65;4.72;;;17.50;99.90;;;;;;5101680;27;20589;-62
2021/09/21 12:45:06;;;;;;;7.13;4.60;;;17.40;99.90;;;;;;5083265;28;20052;-62
2021/09/21 12:47:33;;;;;;;8.30;4.53;;;17.40;99.90;;;;;;5098602;27;20059;-62
2021/09/21 12:50:02;;;;;;;11.52;5.85;;;17.40;99.90;;;;;;5088965;28;20044;-62
2021/09/21 12:52:31;;;;;;;7.72;5.38;;;17.30;99.90;;;;;;5081426;27;20053;-62
2021/09/21 12:54:58;;;;;;;8.95;5.75;;;17.30;99.90;;;;;;5090093;27;20055;-62
2021/09/21 12:57:23;;;;;;;8.43;5.60;;;17.30;99.90;;;;;;5096815;27;20051;-62